createdAt,value
2022-09-05T00:02:49.524Z,59.76
2022-09-05T00:05:51.027Z,59.87
2022-09-05T00:08:29.860Z,60.15
2022-09-05T00:11:39.802Z,60.73
2022-09-05T00:14:10.229Z,60.53
2022-09-05T00:17:02.808Z,60.18
2022-09-05T00:24:17.194Z,60.71
2022-09-05T00:24:27.482Z,60.26
2022-09-05T00:25:53.961Z,60.38
2022-09-05T00:28:33.966Z,60.21
2022-09-05T00:31:54.683Z,60.39
2022-09-05T00:34:17.568Z,61.10
2022-09-05T00:36:48.579Z,60.54
2022-09-05T00:39:20.893Z,60.61
2022-09-05T00:41:51.937Z,60.57
2022-09-05T00:44:22.832Z,60.86
2022-09-05T00:47:03.233Z,61.38
2022-09-05T00:49:40.684Z,60.79
2022-09-05T00:52:14.315Z,60.95
2022-09-05T00:54:59.779Z,60.97
2022-09-05T00:57:43.570Z,60.74
2022-09-05T01:00:18.536Z,61.09
2022-09-05T01:03:09.951Z,61.46
2022-09-05T01:05:56.052Z,61.21
2022-09-05T01:08:38.928Z,61.47
2022-09-05T01:11:13.726Z,61.69
2022-09-05T01:13:48.308Z,60.98
2022-09-05T01:16:24.781Z,61.31
2022-09-05T01:19:06.644Z,61.28
2022-09-05T01:21:53.467Z,61.70
2022-09-05T01:24:42.699Z,61.40
2022-09-05T01:29:12.852Z,61.50
2022-09-05T01:30:41.220Z,61.92
2022-09-05T01:33:19.346Z,62.13
2022-09-05T01:36:11.184Z,62.27
2022-09-05T01:39:47.619Z,61.72
2022-09-05T01:41:43.907Z,62.06
2022-09-05T01:44:18.411Z,61.91
2022-09-05T01:46:58.888Z,61.93
2022-09-05T01:49:43.522Z,62.06
2022-09-05T01:52:28.045Z,62.05
2022-09-05T01:55:14.545Z,62.17
2022-09-05T01:57:52.068Z,62.15
2022-09-05T02:00:23.820Z,62.51
2022-09-05T02:03:08.824Z,62.47
2022-09-05T02:06:07.054Z,62.36
2022-09-05T02:08:57.388Z,62.55
2022-09-05T02:11:41.590Z,62.39
2022-09-05T02:14:31.028Z,62.44
2022-09-05T02:17:23.703Z,62.69
2022-09-05T02:20:12.341Z,62.46
2022-09-05T02:22:45.211Z,62.38
2022-09-05T02:26:01.574Z,62.42
2022-09-05T02:28:13.707Z,62.75
2022-09-05T02:30:58.087Z,62.73
2022-09-05T02:33:41.986Z,62.52
2022-09-05T02:36:16.221Z,62.75
2022-09-05T02:41:18.779Z,62.84
2022-09-05T02:45:13.858Z,63.04
2022-09-05T02:45:18.589Z,62.71
2022-09-05T02:47:37.448Z,62.97
2022-09-05T02:54:29.259Z,63.13
2022-09-05T02:57:34.881Z,62.84
2022-09-05T02:57:35.918Z,63.17
2022-09-05T02:59:35.946Z,63.20
2022-09-05T03:02:25.266Z,63.26
2022-09-05T03:05:05.159Z,63.21
2022-09-05T03:08:08.860Z,63.26
2022-09-05T03:11:18.844Z,63.36
2022-09-05T03:14:12.172Z,63.40
2022-09-05T03:17:19.275Z,63.38
2022-09-05T03:20:41.039Z,63.52
2022-09-05T03:23:34.901Z,63.54
2022-09-05T03:26:30.372Z,63.50
2022-09-05T03:29:24.082Z,63.61
2022-09-05T03:32:27.988Z,63.68
2022-09-05T03:35:34.131Z,63.98
2022-09-05T03:38:32.943Z,63.78
2022-09-05T03:41:21.590Z,64.01
2022-09-05T03:44:24.783Z,64.13
2022-09-05T03:47:09.321Z,63.97
2022-09-05T03:53:09.872Z,64.00
2022-09-05T03:57:24.925Z,64.04
2022-09-05T03:57:25.337Z,63.93
2022-09-05T04:00:02.567Z,64.36
2022-09-05T04:08:10.061Z,64.18
2022-09-05T04:08:16.934Z,64.24
2022-09-05T04:08:34.133Z,64.27
2022-09-05T04:11:11.316Z,64.11
2022-09-05T04:13:50.131Z,64.42
2022-09-05T04:16:22.528Z,64.65
2022-09-05T04:18:55.621Z,64.49
2022-09-05T04:21:28.630Z,64.28
2022-09-05T04:24:11.117Z,64.57
2022-09-05T04:27:00.299Z,64.56
2022-09-05T04:29:44.033Z,64.70
2022-09-05T04:32:24.053Z,64.61
2022-09-05T04:35:08.645Z,64.80
2022-09-05T04:37:48.427Z,64.92
2022-09-05T04:40:40.469Z,64.94
2022-09-05T04:43:14.107Z,65.07
2022-09-05T04:45:48.225Z,65.18
2022-09-05T04:48:22.577Z,65.53
2022-09-05T04:51:04.113Z,65.25
2022-09-05T04:53:54.120Z,65.37
2022-09-05T04:56:28.128Z,65.28
2022-09-05T05:01:46.070Z,65.34
2022-09-05T05:05:59.829Z,65.67
2022-09-05T05:06:12.240Z,65.37
2022-09-05T05:07:41.921Z,65.49
2022-09-05T05:11:06.179Z,65.74
2022-09-05T05:18:02.720Z,65.95
2022-09-05T05:18:07.634Z,65.75
2022-09-05T05:19:05.071Z,65.68
2022-09-05T05:21:36.972Z,66.13
2022-09-05T05:24:12.269Z,66.03
2022-09-05T05:26:48.081Z,66.09
2022-09-05T05:29:29.070Z,66.51
2022-09-05T05:32:00.882Z,66.06
2022-09-05T05:34:34.163Z,66.03
2022-09-05T05:37:07.009Z,66.16
2022-09-05T05:39:39.902Z,66.57
2022-09-05T05:42:20.358Z,67.09
2022-09-05T05:44:53.815Z,67.02
2022-09-05T05:47:31.345Z,67.23
2022-09-05T05:50:11.767Z,67.40
2022-09-05T05:53:30.400Z,67.71
2022-09-05T05:56:27.112Z,67.93
2022-09-05T05:59:32.524Z,67.58
2022-09-05T06:02:36.878Z,67.99
2022-09-05T06:05:31.156Z,68.02
2022-09-05T06:10:26.342Z,68.22
2022-09-05T06:14:55.642Z,68.22
2022-09-05T06:15:27.012Z,68.49
2022-09-05T06:18:29.650Z,68.41
2022-09-05T06:22:11.120Z,69.13
2022-09-05T06:25:16.857Z,68.92
2022-09-05T06:28:20.461Z,69.17
2022-09-05T06:31:29.805Z,68.97
2022-09-05T06:34:00.304Z,69.22
2022-09-05T06:36:52.142Z,69.06
2022-09-05T06:39:31.689Z,68.82
2022-09-05T06:42:33.422Z,69.37
2022-09-05T06:45:28.916Z,69.00
2022-09-05T06:48:14.593Z,69.30
2022-09-05T06:51:44.935Z,69.50
2022-09-05T06:54:52.966Z,69.34
2022-09-05T06:57:55.339Z,69.57
2022-09-05T07:00:26.882Z,69.66
2022-09-05T07:03:22.828Z,69.68
2022-09-05T07:05:57.529Z,69.79
2022-09-05T07:08:36.297Z,69.65
2022-09-05T07:11:16.896Z,69.99
2022-09-05T07:13:59.399Z,69.98
2022-09-05T07:16:41.966Z,69.93
2022-09-05T07:19:27.199Z,70.11
2022-09-05T07:22:48.621Z,69.71
2022-09-05T07:25:18.221Z,69.85
2022-09-05T07:28:25.730Z,70.21
2022-09-05T07:30:49.146Z,70.06
2022-09-05T07:33:21.258Z,69.77
2022-09-05T07:35:54.491Z,70.22
2022-09-05T07:38:26.632Z,70.26
2022-09-05T07:41:19.568Z,70.09
2022-09-05T07:43:55.678Z,69.95
2022-09-05T07:46:26.977Z,70.15
2022-09-05T07:49:00.834Z,70.20
2022-09-05T07:56:53.051Z,70.32
2022-09-05T07:57:09.636Z,70.18
2022-09-05T07:57:31.140Z,70.41
2022-09-05T08:00:25.802Z,70.33
2022-09-05T08:02:56.968Z,70.28
2022-09-05T08:05:35.181Z,70.23
2022-09-05T08:08:09.796Z,70.34
2022-09-05T08:11:24.536Z,70.11
2022-09-05T08:13:51.725Z,70.14
2022-09-05T08:16:25.382Z,70.20
2022-09-05T08:19:00.891Z,70.22
2022-09-05T08:21:40.057Z,70.19
2022-09-05T08:24:14.285Z,70.16
2022-09-05T08:26:47.420Z,70.10
2022-09-05T08:29:27.061Z,70.06
2022-09-05T08:32:03.954Z,70.13
2022-09-05T08:34:44.757Z,70.18
2022-09-05T08:37:21.171Z,70.22
2022-09-05T08:40:10.191Z,69.89
2022-09-05T08:44:34.801Z,70.13
2022-09-05T08:46:47.253Z,70.04
2022-09-05T08:48:45.966Z,69.92
2022-09-05T08:51:30.184Z,69.99
2022-09-05T08:54:15.070Z,69.90
2022-09-05T08:56:54.623Z,69.81
2022-09-05T08:59:34.043Z,69.63
2022-09-05T09:02:47.730Z,69.54
2022-09-05T09:06:12.138Z,69.42
2022-09-05T09:08:22.277Z,69.57
2022-09-05T09:10:57.312Z,69.55
2022-09-05T09:13:37.621Z,69.30
2022-09-05T09:16:11.076Z,69.43
2022-09-05T09:18:45.393Z,69.28
2022-09-05T09:21:30.244Z,69.09
2022-09-05T09:24:08.002Z,68.99
2022-09-05T09:26:43.744Z,68.95
2022-09-05T09:29:14.070Z,68.93
2022-09-05T09:31:54.707Z,68.70
2022-09-05T09:34:45.713Z,68.75
2022-09-05T09:37:51.642Z,68.61
2022-09-05T09:40:33.140Z,68.40
2022-09-05T09:43:08.527Z,68.38
2022-09-05T09:45:53.721Z,68.28
2022-09-05T09:49:02.543Z,68.15
2022-09-05T09:51:45.877Z,68.22
2022-09-05T09:54:53.502Z,68.13
2022-09-05T09:57:59.473Z,68.03
2022-09-05T10:00:38.028Z,68.05
2022-09-05T10:10:35.111Z,68.22
2022-09-05T10:10:43.933Z,67.44
2022-09-05T10:10:57.758Z,67.70
2022-09-05T10:13:35.058Z,67.10
2022-09-05T10:16:45.329Z,67.27
2022-09-05T10:22:52.277Z,66.68
2022-09-05T10:25:51.346Z,66.45
2022-09-05T10:28:34.188Z,65.91
2022-09-05T10:32:50.619Z,65.79
2022-09-05T10:35:10.839Z,65.66
2022-09-05T10:37:05.450Z,65.84
2022-09-05T10:39:36.404Z,65.02
2022-09-05T10:42:14.375Z,64.88
2022-09-05T10:44:49.208Z,65.04
2022-09-05T10:47:31.247Z,64.56
2022-09-05T10:50:12.046Z,64.50
2022-09-05T10:53:08.512Z,64.09
2022-09-05T10:55:48.559Z,63.70
2022-09-05T10:59:54.096Z,63.25
2022-09-05T11:02:27.587Z,62.90
2022-09-05T11:04:29.743Z,62.60
2022-09-05T11:07:13.356Z,62.93
2022-09-05T11:10:02.077Z,62.72
2022-09-05T11:13:07.316Z,62.27
2022-09-05T11:16:03.556Z,62.16
2022-09-05T11:18:57.244Z,61.68
2022-09-05T11:22:04.011Z,61.72
2022-09-05T11:24:50.646Z,61.11
2022-09-05T11:27:27.806Z,60.66
2022-09-05T11:30:02.226Z,60.60
2022-09-05T11:38:05.760Z,60.68
2022-09-05T11:40:06.453Z,60.44
2022-09-05T11:40:07.048Z,60.09
2022-09-05T11:42:12.526Z,59.95
2022-09-05T11:44:58.242Z,59.77
2022-09-05T11:48:20.200Z,59.51
2022-09-05T11:51:11.094Z,59.28
2022-09-05T11:54:14.051Z,59.28
2022-09-05T11:57:32.677Z,59.13
2022-09-05T12:00:33.171Z,58.94
2022-09-05T12:03:57.170Z,58.79
2022-09-05T12:06:57.408Z,58.56
2022-09-05T12:09:44.100Z,58.54
2022-09-05T12:12:38.704Z,58.35
2022-09-05T12:15:25.385Z,58.19
2022-09-05T12:18:18.923Z,58.22
2022-09-05T12:20:58.262Z,58.05
2022-09-05T12:23:55.189Z,57.87
2022-09-05T12:27:39.965Z,57.79
2022-09-05T12:29:32.861Z,57.71
2022-09-05T12:33:52.408Z,57.63
2022-09-05T12:36:12.956Z,57.48
2022-09-05T12:40:54.589Z,57.37
2022-09-05T12:41:36.423Z,57.34
2022-09-05T12:44:29.965Z,57.06
2022-09-05T12:46:37.432Z,57.09
2022-09-05T12:49:10.038Z,56.90
2022-09-05T12:51:47.646Z,56.87
2022-09-05T12:54:34.176Z,56.63
2022-09-05T13:01:42.015Z,56.64
2022-09-05T13:03:12.457Z,56.50
2022-09-05T13:03:26.817Z,56.38
2022-09-05T13:06:00.560Z,56.35
2022-09-05T13:08:44.177Z,56.09
2022-09-05T13:14:49.268Z,55.92
2022-09-05T13:15:02.800Z,55.84
2022-09-05T13:17:05.615Z,55.85
2022-09-05T13:19:40.622Z,55.62
2022-09-05T13:22:11.195Z,55.62
2022-09-05T13:24:42.536Z,55.64
2022-09-05T13:27:17.068Z,55.55
2022-09-05T13:30:05.085Z,55.46
2022-09-05T13:37:59.415Z,55.37
2022-09-05T13:38:05.479Z,55.43
2022-09-05T13:38:48.154Z,55.26
2022-09-05T13:41:28.300Z,55.20
2022-09-05T13:44:25.461Z,54.92
2022-09-05T13:46:59.207Z,54.92
2022-09-05T13:49:33.348Z,54.88
2022-09-05T13:52:26.283Z,54.68
2022-09-05T13:55:05.265Z,54.80
2022-09-05T13:57:38.375Z,54.54
2022-09-05T14:00:54.090Z,54.57
2022-09-05T14:03:41.277Z,54.51
2022-09-05T14:06:47.411Z,54.36
2022-09-05T14:09:35.826Z,54.70
2022-09-05T14:12:12.723Z,54.29
2022-09-05T14:18:20.057Z,54.56
2022-09-05T14:21:13.977Z,54.62
2022-09-05T14:23:55.923Z,54.36
2022-09-05T14:26:30.077Z,54.35
2022-09-05T14:29:05.103Z,54.22
2022-09-05T14:37:43.766Z,53.64
2022-09-05T14:37:45.734Z,54.12
2022-09-05T14:38:15.208Z,53.37
2022-09-05T14:41:25.664Z,53.19
2022-09-05T14:44:15.651Z,52.95
2022-09-05T14:47:02.665Z,52.82
2022-09-05T14:49:51.161Z,52.77
2022-09-05T14:52:23.590Z,52.52
2022-09-05T15:02:50.546Z,52.36
2022-09-05T15:02:54.382Z,52.22
2022-09-05T15:06:37.278Z,52.21
2022-09-05T15:11:25.412Z,52.07
2022-09-05T15:12:28.047Z,51.97
2022-09-05T15:15:02.661Z,51.93
2022-09-05T15:17:31.878Z,51.97
2022-09-05T15:20:07.433Z,52.03
2022-09-05T15:22:38.656Z,51.98
2022-09-05T15:25:19.270Z,52.17
2022-09-05T15:27:49.763Z,52.29
2022-09-05T15:30:21.471Z,51.83
2022-09-05T15:32:50.712Z,51.59
2022-09-05T15:35:36.627Z,51.73
2022-09-05T15:38:27.255Z,51.52
2022-09-05T15:41:19.674Z,51.41
2022-09-05T15:44:09.271Z,51.27
2022-09-05T15:46:47.209Z,51.20
2022-09-05T15:49:28.380Z,51.02
2022-09-05T15:52:01.540Z,50.88
2022-09-05T15:54:38.335Z,50.77
2022-09-05T15:57:17.593Z,50.67
2022-09-05T15:59:53.068Z,50.56
2022-09-05T16:02:24.532Z,50.54
2022-09-05T16:10:28.776Z,50.40
2022-09-05T16:10:43.755Z,50.28
2022-09-05T16:11:11.139Z,50.38
2022-09-05T16:13:52.142Z,50.22
2022-09-05T16:23:15.950Z,50.20
2022-09-05T16:23:33.602Z,50.12
2022-09-05T16:23:34.273Z,49.91
2022-09-05T16:25:12.752Z,49.93
2022-09-05T16:27:55.995Z,49.77
2022-09-05T16:30:26.893Z,49.90
2022-09-05T16:33:08.096Z,49.53
2022-09-05T16:35:44.296Z,49.79
2022-09-05T16:38:24.261Z,49.62
2022-09-05T16:41:13.754Z,49.61
2022-09-05T16:43:47.811Z,49.65
2022-09-05T16:46:20.836Z,49.34
2022-09-05T16:48:55.524Z,49.16
2022-09-05T16:51:34.948Z,49.47
2022-09-05T16:54:10.995Z,49.07
2022-09-05T16:56:43.569Z,48.93
2022-09-05T16:59:17.625Z,49.34
2022-09-05T17:02:07.774Z,49.11
2022-09-05T17:05:04.382Z,49.38
2022-09-05T17:07:42.213Z,49.14
2022-09-05T17:10:13.143Z,49.07
2022-09-05T17:12:42.474Z,48.88
2022-09-05T17:15:14.554Z,48.98
2022-09-05T17:18:20.487Z,48.74
2022-09-05T17:20:51.309Z,48.77
2022-09-05T17:26:44.148Z,48.63
2022-09-05T17:29:28.324Z,48.62
2022-09-05T17:29:34.291Z,48.68
2022-09-05T17:32:04.601Z,48.49
2022-09-05T17:34:51.694Z,48.48
2022-09-05T17:37:34.352Z,48.57
2022-09-05T17:40:19.676Z,48.42
2022-09-05T17:42:55.176Z,48.72
2022-09-05T17:45:26.963Z,48.62
2022-09-05T17:47:58.009Z,48.61
2022-09-05T17:50:51.292Z,48.34
2022-09-05T17:53:30.767Z,48.38
2022-09-05T17:56:13.773Z,48.18
2022-09-05T17:59:04.097Z,48.04
2022-09-05T18:01:33.795Z,47.85
2022-09-05T18:04:15.674Z,48.36
2022-09-05T18:07:00.542Z,48.13
2022-09-05T18:10:12.875Z,47.87
2022-09-05T18:13:14.144Z,48.10
2022-09-05T18:16:12.092Z,47.75
2022-09-05T18:19:28.266Z,48.08
2022-09-05T18:21:48.455Z,48.65
2022-09-05T18:24:33.694Z,48.29
2022-09-05T18:27:43.971Z,48.28
2022-09-05T18:30:11.897Z,48.14
2022-09-05T18:32:45.617Z,48.13
2022-09-05T18:35:36.413Z,48.52
2022-09-05T18:38:50.195Z,48.46
2022-09-05T18:41:19.635Z,48.11
2022-09-05T18:44:12.239Z,48.61
2022-09-05T18:46:46.579Z,48.53
2022-09-05T18:50:22.104Z,48.21
2022-09-05T18:52:15.595Z,47.82
2022-09-05T18:54:48.354Z,48.15
2022-09-05T18:57:39.625Z,47.90
2022-09-05T19:00:13.895Z,48.21
2022-09-05T19:02:51.580Z,48.52
2022-09-05T19:05:39.217Z,48.22
2022-09-05T19:08:28.886Z,48.18
2022-09-05T19:11:27.676Z,48.29
2022-09-05T19:14:26.703Z,48.55
2022-09-05T19:16:47.717Z,48.30
2022-09-05T19:19:18.569Z,48.59
2022-09-05T19:21:56.191Z,48.20
2022-09-05T19:24:45.528Z,48.47
2022-09-05T19:28:29.240Z,48.77
2022-09-05T19:36:53.189Z,48.54
2022-09-05T19:36:58.629Z,48.33
2022-09-05T19:37:10.686Z,48.27
2022-09-05T19:39:24.872Z,48.83
2022-09-05T19:47:27.793Z,48.67
2022-09-05T19:47:36.821Z,48.80
2022-09-05T19:47:48.176Z,48.77
2022-09-05T19:50:11.528Z,48.82
2022-09-05T19:56:22.065Z,48.96
2022-09-05T19:58:51.060Z,48.70
2022-09-05T20:01:23.134Z,48.84
2022-09-05T20:03:54.214Z,49.05
2022-09-05T20:06:29.828Z,49.02
2022-09-05T20:09:10.218Z,49.22
2022-09-05T20:11:45.796Z,49.14
2022-09-05T20:14:21.633Z,49.16
2022-09-05T20:16:50.637Z,49.28
2022-09-05T20:19:34.023Z,49.10
2022-09-05T20:22:47.871Z,49.11
2022-09-05T20:24:58.945Z,48.98
2022-09-05T20:27:30.035Z,49.33
2022-09-05T20:30:00.938Z,49.14
2022-09-05T20:32:39.327Z,49.37
2022-09-05T20:38:54.629Z,49.31
2022-09-05T20:43:17.744Z,49.29
2022-09-05T20:43:23.807Z,49.34
2022-09-05T20:43:54.795Z,49.51
2022-09-05T20:48:43.494Z,49.35
2022-09-05T20:54:14.952Z,49.55
2022-09-05T20:54:15.605Z,49.72
2022-09-05T20:55:39.531Z,49.59
2022-09-05T20:58:11.165Z,49.63
2022-09-05T21:01:15.357Z,49.86
2022-09-05T21:03:34.854Z,49.99
2022-09-05T21:06:12.719Z,50.14
2022-09-05T21:08:44.077Z,49.70
2022-09-05T21:11:14.225Z,50.06
2022-09-05T21:13:52.944Z,49.83
2022-09-05T21:16:23.555Z,50.06
2022-09-05T21:18:52.970Z,50.27
2022-09-05T21:21:29.407Z,49.87
2022-09-05T21:24:16.365Z,50.14
2022-09-05T21:26:49.375Z,49.90
2022-09-05T21:29:27.340Z,50.31
2022-09-05T21:32:03.929Z,50.20
2022-09-05T21:34:44.936Z,50.68
2022-09-05T21:37:15.393Z,50.36
2022-09-05T21:39:58.552Z,50.06
2022-09-05T21:47:38.255Z,50.43
2022-09-05T21:47:46.669Z,50.65
2022-09-05T21:48:10.547Z,50.92
2022-09-05T21:50:41.034Z,50.23
2022-09-05T21:55:37.243Z,50.44
2022-09-05T21:59:27.971Z,50.86
2022-09-05T21:59:29.495Z,50.48
2022-09-05T22:01:53.298Z,50.69
2022-09-05T22:04:22.565Z,51.33
2022-09-05T22:06:53.308Z,50.81
2022-09-05T22:09:22.761Z,51.43
2022-09-05T22:11:51.489Z,50.92
2022-09-05T22:14:22.816Z,50.71
2022-09-05T22:16:52.929Z,51.13
2022-09-05T22:19:36.831Z,50.96
2022-09-05T22:22:16.536Z,51.36
2022-09-05T22:24:49.440Z,51.29
2022-09-05T22:27:19.358Z,51.21
2022-09-05T22:29:50.597Z,51.29
2022-09-05T22:32:33.922Z,51.47
2022-09-05T22:35:27.010Z,51.58
2022-09-05T22:38:01.457Z,51.21
2022-09-05T22:40:30.986Z,51.75
2022-09-05T22:43:00.725Z,51.57
2022-09-05T22:45:31.835Z,51.69
2022-09-05T22:48:00.551Z,52.03
2022-09-05T22:50:28.539Z,52.07
2022-09-05T22:52:56.366Z,51.49
2022-09-05T22:55:24.295Z,51.59
2022-09-05T22:57:52.075Z,51.83
2022-09-05T23:00:21.337Z,52.26
2022-09-05T23:02:52.848Z,52.12
2022-09-05T23:05:20.958Z,51.77
2022-09-05T23:07:48.757Z,52.52
2022-09-05T23:10:17.304Z,51.93
2022-09-05T23:12:46.126Z,52.57
2022-09-05T23:15:14.098Z,52.04
2022-09-05T23:17:42.328Z,52.08
2022-09-05T23:20:12.083Z,52.02
2022-09-05T23:22:40.219Z,52.60
2022-09-05T23:25:08.811Z,52.51
2022-09-05T23:27:37.179Z,52.25
2022-09-05T23:30:07.160Z,52.71
2022-09-05T23:32:35.229Z,52.21
2022-09-05T23:35:03.120Z,52.50
2022-09-05T23:37:32.486Z,52.22
2022-09-05T23:40:00.911Z,52.55
2022-09-05T23:42:28.764Z,52.41
2022-09-05T23:44:56.579Z,52.66
2022-09-05T23:47:24.782Z,52.75
2022-09-05T23:49:52.681Z,52.78
2022-09-05T23:52:20.567Z,52.63
2022-09-05T23:54:49.888Z,52.87
2022-09-05T23:57:22.380Z,53.08
2022-09-05T23:59:52.604Z,53.34
